createdAt,value
2022-08-16T00:24:04.827Z,0.00
2022-08-16T00:24:58.844Z,0.00
2022-08-16T00:26:36.037Z,0.00
2022-08-16T00:26:59.894Z,0.00
2022-08-16T00:27:59.435Z,0.00
2022-08-16T00:28:59.243Z,0.00
2022-08-16T00:30:08.295Z,0.00
2022-08-16T00:31:01.024Z,0.00
2022-08-16T00:32:01.313Z,0.00
2022-08-16T00:32:59.713Z,0.00
2022-08-16T00:33:58.655Z,0.00
2022-08-16T00:35:00.389Z,0.00
2022-08-16T00:35:58.597Z,0.00
2022-08-16T00:36:58.659Z,0.00
2022-08-16T00:37:59.675Z,0.00
2022-08-16T00:38:58.579Z,0.00
2022-08-16T00:39:59.032Z,0.00
2022-08-16T00:40:58.575Z,0.00
2022-08-16T00:41:58.531Z,0.00
2022-08-16T00:42:58.490Z,0.00
2022-08-16T00:43:58.557Z,0.00
2022-08-16T00:44:58.458Z,0.00
2022-08-16T00:46:00.517Z,0.00
2022-08-16T00:47:06.572Z,0.00
2022-08-16T00:47:59.429Z,0.00
2022-08-16T00:48:58.458Z,0.00
2022-08-16T00:49:58.463Z,0.00
2022-08-16T00:50:58.369Z,0.00
2022-08-16T00:51:58.493Z,0.00
2022-08-16T00:52:58.834Z,0.00
2022-08-16T00:53:58.351Z,0.00
2022-08-16T00:54:58.416Z,0.00
2022-08-16T00:55:58.383Z,0.00
2022-08-16T00:57:00.080Z,0.00
2022-08-16T00:58:00.772Z,0.00
2022-08-16T00:58:58.283Z,0.00
2022-08-16T00:59:59.683Z,0.00
2022-08-16T01:00:58.293Z,0.00
2022-08-16T01:01:58.242Z,0.00
2022-08-16T01:02:58.199Z,0.00
2022-08-16T01:03:58.175Z,0.00
2022-08-16T01:05:09.094Z,0.00
2022-08-16T01:05:59.227Z,0.00
2022-08-16T01:07:01.821Z,0.00
2022-08-16T01:07:58.622Z,0.00
2022-08-16T01:09:00.184Z,0.00
2022-08-16T01:09:58.107Z,0.00
2022-08-16T01:11:00.003Z,0.00
2022-08-16T01:11:58.120Z,0.00
2022-08-16T01:12:58.071Z,0.00
2022-08-16T01:13:58.069Z,0.00
2022-08-16T01:14:58.094Z,0.00
2022-08-16T01:15:58.030Z,0.00
2022-08-16T01:16:58.127Z,0.00
2022-08-16T01:17:58.011Z,0.00
2022-08-16T01:18:57.990Z,0.00
2022-08-16T01:19:58.020Z,0.00
2022-08-16T01:20:57.941Z,0.00
2022-08-16T01:21:57.971Z,0.00
2022-08-16T01:22:59.550Z,0.00
2022-08-16T01:24:01.069Z,0.00
2022-08-16T01:24:57.972Z,0.00
2022-08-16T01:25:59.739Z,0.00
2022-08-16T01:26:57.843Z,0.00
2022-08-16T01:27:58.854Z,0.00
2022-08-16T01:28:57.842Z,0.00
2022-08-16T01:29:59.595Z,0.00
2022-08-16T01:30:57.819Z,0.00
2022-08-16T01:31:57.784Z,0.00
2022-08-16T01:33:02.550Z,0.00
2022-08-16T01:33:58.817Z,0.00
2022-08-16T01:34:57.745Z,0.00
2022-08-16T01:35:57.796Z,0.00
2022-08-16T01:36:58.447Z,0.00
2022-08-16T01:37:57.737Z,0.00
2022-08-16T01:38:57.756Z,0.00
2022-08-16T01:39:57.796Z,0.00
2022-08-16T01:40:57.727Z,0.00
2022-08-16T01:41:57.682Z,0.00
2022-08-16T01:42:57.718Z,0.00
2022-08-16T01:44:01.338Z,0.00
2022-08-16T01:44:57.609Z,0.00
2022-08-16T01:45:58.246Z,0.00
2022-08-16T01:46:57.590Z,0.00
2022-08-16T01:47:57.624Z,0.00
2022-08-16T01:48:57.569Z,0.00
2022-08-16T01:50:42.483Z,0.00
2022-08-16T01:51:08.980Z,0.00
2022-08-16T01:51:58.609Z,0.00
2022-08-16T01:52:57.512Z,0.00
2022-08-16T01:53:57.531Z,0.00
2022-08-16T01:54:57.474Z,0.00
2022-08-16T01:55:57.502Z,0.00
2022-08-16T01:56:57.449Z,0.00
2022-08-16T01:57:57.473Z,0.00
2022-08-16T01:58:57.431Z,0.00
2022-08-16T01:59:57.402Z,0.00
2022-08-16T02:00:57.429Z,0.00
2022-08-16T02:01:59.832Z,0.00
2022-08-16T02:02:57.393Z,0.00
2022-08-16T02:03:58.611Z,0.00
2022-08-16T02:04:58.468Z,0.00
2022-08-16T02:05:57.370Z,0.00
2022-08-16T02:06:57.362Z,0.00
2022-08-16T02:07:57.336Z,0.00
2022-08-16T02:08:57.315Z,0.00
2022-08-16T02:09:59.539Z,0.00
2022-08-16T02:10:57.237Z,0.00
2022-08-16T02:11:57.316Z,0.00
2022-08-16T02:13:00.681Z,0.00
2022-08-16T02:13:57.227Z,0.00
2022-08-16T02:14:57.568Z,0.00
2022-08-16T02:15:57.233Z,0.00
2022-08-16T02:16:57.158Z,0.00
2022-08-16T02:17:57.165Z,0.00
2022-08-16T02:18:57.116Z,0.00
2022-08-16T02:19:59.049Z,0.00
2022-08-16T02:20:57.110Z,0.00
2022-08-16T02:22:07.782Z,0.00
2022-08-16T02:22:58.109Z,0.00
2022-08-16T02:23:57.050Z,0.00
2022-08-16T02:24:57.090Z,0.00
2022-08-16T02:25:57.060Z,0.00
2022-08-16T02:26:57.011Z,0.00
2022-08-16T02:27:57.021Z,0.00
2022-08-16T02:28:56.985Z,0.00
2022-08-16T02:30:04.915Z,0.00
2022-08-16T02:30:58.024Z,0.00
2022-08-16T02:32:03.717Z,0.00
2022-08-16T02:32:57.955Z,0.00
2022-08-16T02:33:56.988Z,0.00
2022-08-16T02:34:56.909Z,0.00
2022-08-16T02:35:58.269Z,0.00
2022-08-16T02:36:56.934Z,0.00
2022-08-16T02:37:56.905Z,0.00
2022-08-16T02:38:57.915Z,0.00
2022-08-16T02:39:56.902Z,0.00
2022-08-16T02:40:56.815Z,0.00
2022-08-16T02:41:56.829Z,0.00
2022-08-16T02:42:56.845Z,0.00
2022-08-16T02:43:56.818Z,0.00
2022-08-16T02:44:56.888Z,0.00
2022-08-16T02:45:56.810Z,0.00
2022-08-16T02:46:56.769Z,0.00
2022-08-16T02:48:00.592Z,0.00
2022-08-16T02:49:00.368Z,0.00
2022-08-16T02:49:59.070Z,0.00
2022-08-16T02:51:05.940Z,0.00
2022-08-16T02:51:57.664Z,0.00
2022-08-16T02:52:56.679Z,0.00
2022-08-16T02:53:56.675Z,0.00
2022-08-16T02:54:56.642Z,0.00
2022-08-16T02:55:56.699Z,0.00
2022-08-16T02:56:56.590Z,0.00
2022-08-16T02:57:56.623Z,0.00
2022-08-16T02:58:56.598Z,0.00
2022-08-16T02:59:56.623Z,0.00
2022-08-16T03:00:56.549Z,0.00
2022-08-16T03:01:56.596Z,0.00
2022-08-16T03:02:56.537Z,0.00
2022-08-16T03:04:39.727Z,0.00
2022-08-16T03:04:57.563Z,0.00
2022-08-16T03:05:56.485Z,0.00
2022-08-16T03:06:57.344Z,0.00
2022-08-16T03:07:56.473Z,0.00
2022-08-16T03:08:56.437Z,0.00
2022-08-16T03:09:56.456Z,0.00
2022-08-16T03:10:59.083Z,0.00
2022-08-16T03:11:56.440Z,0.00
2022-08-16T03:12:56.843Z,0.00
2022-08-16T03:13:56.631Z,0.00
2022-08-16T03:14:56.407Z,0.00
2022-08-16T03:15:56.381Z,0.00
2022-08-16T03:16:58.670Z,0.00
2022-08-16T03:17:56.371Z,0.00
2022-08-16T03:18:56.322Z,0.00
2022-08-16T03:20:02.425Z,0.00
2022-08-16T03:20:57.292Z,0.00
2022-08-16T03:21:56.293Z,0.00
2022-08-16T03:22:56.517Z,0.00
2022-08-16T03:23:56.253Z,0.00
2022-08-16T03:24:57.538Z,0.00
2022-08-16T03:25:56.291Z,0.00
2022-08-16T03:26:57.983Z,0.00
2022-08-16T03:27:56.187Z,0.00
2022-08-16T03:28:56.173Z,0.00
2022-08-16T03:29:56.175Z,0.00
2022-08-16T03:30:56.152Z,0.00
2022-08-16T03:31:56.223Z,0.00
2022-08-16T03:32:56.174Z,0.00
2022-08-16T03:33:56.119Z,0.00
2022-08-16T03:34:56.116Z,0.00
2022-08-16T03:35:57.083Z,0.00
2022-08-16T03:36:56.474Z,0.00
2022-08-16T03:38:02.462Z,0.00
2022-08-16T03:38:57.015Z,0.00
2022-08-16T03:39:56.258Z,0.00
2022-08-16T03:40:56.068Z,0.00
2022-08-16T03:41:59.767Z,0.00
2022-08-16T03:43:02.104Z,0.00
2022-08-16T03:43:56.968Z,0.00
2022-08-16T03:45:03.235Z,0.00
2022-08-16T03:45:56.958Z,0.00
2022-08-16T03:46:55.917Z,0.00
2022-08-16T03:47:58.290Z,0.00
2022-08-16T03:48:55.911Z,0.00
2022-08-16T03:49:55.911Z,0.00
2022-08-16T03:51:00.109Z,0.00
2022-08-16T03:51:55.898Z,0.00
2022-08-16T03:53:01.306Z,5.62
2022-08-16T03:54:00.960Z,5.62
2022-08-16T03:54:58.039Z,5.62
2022-08-16T03:55:55.802Z,5.62
2022-08-16T03:56:58.081Z,5.62
2022-08-16T03:57:55.792Z,5.62
2022-08-16T03:58:55.775Z,5.62
2022-08-16T03:59:55.771Z,5.62
2022-08-16T04:00:59.029Z,5.62
2022-08-16T04:01:55.731Z,5.62
2022-08-16T04:02:55.705Z,5.62
2022-08-16T04:03:55.703Z,5.62
2022-08-16T04:04:55.685Z,11.25
2022-08-16T04:05:55.660Z,11.25
2022-08-16T04:06:55.634Z,11.25
2022-08-16T04:07:55.676Z,11.25
2022-08-16T04:08:55.814Z,11.25
2022-08-16T04:09:57.597Z,11.25
2022-08-16T04:10:55.575Z,16.88
2022-08-16T04:11:55.564Z,16.88
2022-08-16T04:13:00.692Z,16.88
2022-08-16T04:14:01.277Z,16.88
2022-08-16T04:14:56.591Z,16.88
2022-08-16T04:15:55.487Z,22.50
2022-08-16T04:16:55.517Z,22.50
2022-08-16T04:17:55.498Z,22.50
2022-08-16T04:19:02.372Z,22.50
2022-08-16T04:19:58.110Z,28.12
2022-08-16T04:20:56.454Z,28.12
2022-08-16T04:21:56.807Z,28.12
2022-08-16T04:22:55.433Z,33.75
2022-08-16T04:23:55.443Z,33.75
2022-08-16T04:24:59.455Z,33.75
2022-08-16T04:25:55.348Z,39.38
2022-08-16T04:26:55.440Z,39.38
2022-08-16T04:27:55.979Z,39.38
2022-08-16T04:29:15.307Z,45.00
2022-08-16T04:30:02.803Z,45.00
2022-08-16T04:30:56.311Z,45.00
2022-08-16T04:31:55.634Z,50.62
2022-08-16T04:32:55.641Z,50.62
2022-08-16T04:33:55.285Z,50.62
2022-08-16T04:34:55.243Z,56.25
2022-08-16T04:35:55.285Z,56.25
2022-08-16T04:36:55.254Z,56.25
2022-08-16T04:37:55.247Z,56.25
2022-08-16T04:38:55.242Z,56.25
2022-08-16T04:39:57.124Z,56.25
2022-08-16T04:40:55.134Z,61.88
2022-08-16T04:41:56.581Z,61.88
2022-08-16T04:42:55.180Z,61.88
2022-08-16T04:43:55.106Z,67.50
2022-08-16T04:44:55.902Z,67.50
2022-08-16T04:46:00.854Z,73.12
2022-08-16T04:47:00.874Z,73.12
2022-08-16T04:47:56.453Z,78.75
2022-08-16T04:48:55.026Z,78.75
2022-08-16T04:49:55.019Z,84.38
2022-08-16T04:50:55.018Z,84.38
2022-08-16T04:51:55.337Z,90.00
2022-08-16T04:52:55.619Z,90.00
2022-08-16T04:53:55.022Z,95.62
2022-08-16T04:54:54.957Z,101.25
2022-08-16T04:55:54.998Z,101.25
2022-08-16T04:56:54.940Z,106.88
2022-08-16T04:57:54.940Z,112.50
2022-08-16T04:58:57.812Z,112.50
2022-08-16T04:59:54.901Z,118.12
2022-08-16T05:00:54.971Z,123.75
2022-08-16T05:01:58.667Z,129.38
2022-08-16T05:02:56.181Z,129.38
2022-08-16T05:04:00.419Z,135.00
2022-08-16T05:04:55.811Z,140.62
2022-08-16T05:05:59.245Z,140.62
2022-08-16T05:06:55.851Z,146.25
2022-08-16T05:07:58.669Z,146.25
2022-08-16T05:08:56.564Z,151.88
2022-08-16T05:09:54.815Z,157.50
2022-08-16T05:10:59.905Z,157.50
2022-08-16T05:11:57.593Z,163.12
2022-08-16T05:12:54.749Z,168.75
2022-08-16T05:13:54.698Z,174.38
2022-08-16T05:15:02.235Z,185.62
2022-08-16T05:15:56.599Z,191.25
2022-08-16T05:16:54.741Z,196.88
2022-08-16T05:17:58.337Z,208.12
2022-08-16T05:18:56.542Z,213.75
2022-08-16T05:19:57.442Z,213.75
2022-08-16T05:21:09.480Z,219.38
2022-08-16T05:21:55.659Z,225.00
2022-08-16T05:22:54.594Z,230.62
2022-08-16T05:23:56.080Z,236.25
2022-08-16T05:24:56.532Z,247.50
2022-08-16T05:25:54.553Z,253.12
2022-08-16T05:26:54.519Z,258.75
2022-08-16T05:27:54.571Z,264.38
2022-08-16T05:28:55.604Z,270.00
2022-08-16T05:30:00.028Z,275.62
2022-08-16T05:30:55.484Z,275.62
2022-08-16T05:31:54.536Z,281.25
2022-08-16T05:32:54.462Z,286.88
2022-08-16T05:33:54.677Z,286.88
2022-08-16T05:34:54.432Z,298.12
2022-08-16T05:35:55.571Z,303.75
2022-08-16T05:36:54.514Z,315.00
2022-08-16T05:37:54.515Z,326.25
2022-08-16T05:38:54.446Z,331.88
2022-08-16T05:39:55.261Z,337.50
2022-08-16T05:40:59.637Z,343.12
2022-08-16T05:41:55.492Z,354.38
2022-08-16T05:42:55.705Z,360.00
2022-08-16T05:43:59.045Z,365.62
2022-08-16T05:44:55.464Z,376.88
2022-08-16T05:45:54.263Z,382.50
2022-08-16T05:46:54.275Z,393.75
2022-08-16T05:48:00.290Z,410.62
2022-08-16T05:49:01.756Z,410.62
2022-08-16T05:49:56.188Z,416.25
2022-08-16T05:50:54.318Z,427.50
2022-08-16T05:51:54.286Z,433.12
2022-08-16T05:52:54.346Z,438.75
2022-08-16T05:53:54.238Z,444.38
2022-08-16T05:55:01.589Z,461.25
2022-08-16T05:55:55.108Z,478.12
2022-08-16T05:56:54.182Z,495.00
2022-08-16T05:57:54.137Z,517.50
2022-08-16T05:58:54.082Z,528.75
2022-08-16T05:59:59.999Z,534.38
2022-08-16T06:00:55.103Z,551.25
2022-08-16T06:01:54.105Z,562.50
2022-08-16T06:02:54.102Z,596.25
2022-08-16T06:03:54.189Z,585.00
2022-08-16T06:04:54.389Z,624.38
2022-08-16T06:05:54.017Z,663.75
2022-08-16T06:06:56.224Z,669.38
2022-08-16T06:07:58.472Z,669.38
2022-08-16T06:08:54.970Z,635.62
2022-08-16T06:09:53.943Z,686.25
2022-08-16T06:11:09.532Z,714.38
2022-08-16T06:11:54.882Z,720.00
2022-08-16T06:12:55.835Z,725.62
2022-08-16T06:13:55.410Z,720.00
2022-08-16T06:14:53.835Z,708.75
2022-08-16T06:15:53.905Z,703.12
2022-08-16T06:16:53.827Z,669.38
2022-08-16T06:17:53.845Z,736.88
2022-08-16T06:18:53.857Z,753.75
2022-08-16T06:19:53.808Z,759.38
2022-08-16T06:20:55.667Z,759.38
2022-08-16T06:21:55.023Z,748.12
2022-08-16T06:22:58.562Z,708.75
2022-08-16T06:23:54.758Z,770.62
2022-08-16T06:24:55.841Z,798.75
2022-08-16T06:25:53.698Z,793.12
2022-08-16T06:26:57.821Z,736.88
2022-08-16T06:27:58.218Z,708.75
2022-08-16T06:28:53.748Z,725.62
2022-08-16T06:29:53.674Z,759.38
2022-08-16T06:30:53.670Z,731.25
2022-08-16T06:31:53.653Z,725.62
2022-08-16T06:32:53.798Z,703.12
2022-08-16T06:33:53.583Z,675.00
2022-08-16T06:34:56.977Z,680.62
2022-08-16T06:35:55.132Z,658.12
2022-08-16T06:36:59.172Z,714.38
2022-08-16T06:37:54.555Z,770.62
2022-08-16T06:38:56.623Z,770.62
2022-08-16T06:39:53.683Z,708.75
2022-08-16T06:40:53.515Z,691.88
2022-08-16T06:41:53.485Z,714.38
2022-08-16T06:42:57.318Z,781.88
2022-08-16T06:43:53.459Z,855.00
2022-08-16T06:44:53.426Z,877.50
2022-08-16T06:45:53.437Z,939.38
2022-08-16T06:46:53.480Z,894.38
2022-08-16T06:47:56.433Z,888.75
2022-08-16T06:48:53.413Z,843.75
2022-08-16T06:49:54.174Z,905.62
2022-08-16T06:50:54.159Z,894.38
2022-08-16T06:51:53.471Z,956.25
2022-08-16T06:52:57.736Z,1096.88
2022-08-16T06:53:53.324Z,1125.00
2022-08-16T06:54:53.303Z,1136.25
2022-08-16T06:55:53.848Z,1108.12
2022-08-16T06:56:54.116Z,1395.00
2022-08-16T06:57:53.341Z,1378.12
2022-08-16T06:58:53.259Z,1440.00
2022-08-16T06:59:58.188Z,1417.50
2022-08-16T07:00:54.297Z,1428.75
2022-08-16T07:01:55.183Z,1293.75
2022-08-16T07:02:54.442Z,1080.00
2022-08-16T07:03:55.012Z,1006.88
2022-08-16T07:04:53.163Z,1006.88
2022-08-16T07:05:53.904Z,1018.12
2022-08-16T07:06:53.280Z,1046.25
2022-08-16T07:07:54.073Z,1288.12
2022-08-16T07:08:53.131Z,1254.38
2022-08-16T07:09:53.127Z,1248.75
2022-08-16T07:10:53.098Z,1535.62
2022-08-16T07:11:53.148Z,1552.50
2022-08-16T07:13:03.237Z,1451.25
2022-08-16T07:14:00.398Z,1321.88
2022-08-16T07:14:57.337Z,1676.25
2022-08-16T07:15:54.059Z,1546.88
2022-08-16T07:16:52.996Z,1591.88
2022-08-16T07:17:54.460Z,1575.00
2022-08-16T07:18:59.097Z,1580.62
2022-08-16T07:20:29.332Z,1530.00
2022-08-16T07:20:54.063Z,1186.88
2022-08-16T07:21:59.905Z,1344.38
2022-08-16T07:22:58.542Z,990.00
2022-08-16T07:24:05.896Z,916.88
2022-08-16T07:24:53.913Z,883.12
2022-08-16T07:25:52.912Z,888.75
2022-08-16T07:26:52.908Z,877.50
2022-08-16T07:27:52.867Z,877.50
2022-08-16T07:28:52.855Z,888.75
2022-08-16T07:29:56.276Z,995.62
2022-08-16T07:30:52.867Z,1040.62
2022-08-16T07:31:53.766Z,1456.88
2022-08-16T07:32:52.778Z,1192.50
2022-08-16T07:33:54.927Z,1102.50
2022-08-16T07:34:52.738Z,1299.38
2022-08-16T07:35:52.787Z,1158.75
2022-08-16T07:36:57.858Z,1389.38
2022-08-16T07:37:53.721Z,1153.12
2022-08-16T07:38:52.730Z,1473.75
2022-08-16T07:39:52.736Z,1175.62
2022-08-16T07:41:01.709Z,1080.00
2022-08-16T07:41:53.727Z,1125.00
2022-08-16T07:42:52.643Z,1006.88
2022-08-16T07:43:52.652Z,1687.50
2022-08-16T07:44:52.673Z,1755.00
2022-08-16T07:45:53.103Z,1726.88
2022-08-16T07:46:55.452Z,1687.50
2022-08-16T07:47:52.614Z,1676.25
2022-08-16T07:48:52.574Z,1226.25
2022-08-16T07:49:58.211Z,1231.88
2022-08-16T07:50:57.730Z,1771.88
2022-08-16T07:51:55.924Z,1805.62
2022-08-16T07:52:52.587Z,1850.62
2022-08-16T07:54:02.336Z,1856.25
2022-08-16T07:54:53.622Z,1653.75
2022-08-16T07:55:52.477Z,1895.62
2022-08-16T07:56:52.479Z,1912.50
2022-08-16T07:58:00.861Z,1299.38
2022-08-16T07:58:55.569Z,1186.88
2022-08-16T07:59:52.416Z,1411.88
2022-08-16T08:00:53.895Z,1254.38
2022-08-16T08:01:53.038Z,1119.38
2022-08-16T08:02:52.525Z,1108.12
2022-08-16T08:03:52.350Z,1153.12
2022-08-16T08:04:52.410Z,1091.25
2022-08-16T08:05:52.342Z,1468.12
2022-08-16T08:06:52.331Z,1023.75
2022-08-16T08:07:52.302Z,1029.38
2022-08-16T08:08:57.239Z,984.38
2022-08-16T08:09:53.424Z,1051.88
2022-08-16T08:10:52.285Z,1181.25
2022-08-16T08:12:00.899Z,860.62
2022-08-16T08:12:53.244Z,945.00
2022-08-16T08:13:52.234Z,956.25
2022-08-16T08:14:52.206Z,1226.25
2022-08-16T08:15:52.557Z,1800.00
2022-08-16T08:16:52.206Z,1738.12
2022-08-16T08:17:52.155Z,2041.88
2022-08-16T08:18:56.191Z,1524.38
2022-08-16T08:19:53.692Z,1479.38
2022-08-16T08:20:59.195Z,2115.00
2022-08-16T08:21:58.921Z,2261.25
2022-08-16T08:22:53.101Z,1276.88
2022-08-16T08:23:53.098Z,1305.00
2022-08-16T08:24:52.089Z,2553.75
2022-08-16T08:25:55.333Z,2160.00
2022-08-16T08:26:52.115Z,2655.00
2022-08-16T08:27:52.053Z,2171.25
2022-08-16T08:28:53.041Z,2716.88
2022-08-16T08:30:48.967Z,1631.25
2022-08-16T08:31:01.509Z,1845.00
2022-08-16T08:31:53.094Z,1575.00
2022-08-16T08:33:02.153Z,1372.50
2022-08-16T08:33:52.975Z,1389.38
2022-08-16T08:34:51.964Z,1355.62
2022-08-16T08:35:52.096Z,1501.88
2022-08-16T08:36:54.427Z,1445.62
2022-08-16T08:37:55.137Z,1569.38
2022-08-16T08:38:51.918Z,2064.38
2022-08-16T08:39:54.840Z,1659.38
2022-08-16T08:40:51.895Z,2126.25
2022-08-16T08:41:51.856Z,2193.75
2022-08-16T08:42:51.893Z,2581.88
2022-08-16T08:43:52.904Z,2514.38
2022-08-16T08:44:51.854Z,2458.12
2022-08-16T08:45:53.030Z,2503.12
2022-08-16T08:47:00.648Z,2452.50
2022-08-16T08:47:54.245Z,2441.25
2022-08-16T08:49:00.125Z,2491.88
2022-08-16T08:49:55.471Z,2435.62
2022-08-16T08:50:51.748Z,2334.38
2022-08-16T08:51:51.768Z,2334.38
2022-08-16T08:52:51.757Z,2413.12
2022-08-16T08:53:57.910Z,2418.75
2022-08-16T08:54:52.748Z,2520.00
2022-08-16T08:55:57.581Z,2486.25
2022-08-16T08:56:52.664Z,2430.00
2022-08-16T08:57:51.704Z,2475.00
2022-08-16T08:58:54.047Z,2441.25
2022-08-16T08:59:52.908Z,2385.00
2022-08-16T09:00:52.002Z,2424.38
2022-08-16T09:01:57.208Z,2486.25
2022-08-16T09:02:52.769Z,2525.62
2022-08-16T09:03:51.639Z,2632.50
2022-08-16T09:04:51.620Z,2570.62
2022-08-16T09:05:51.934Z,2565.00
2022-08-16T09:06:51.553Z,2565.00
2022-08-16T09:08:00.643Z,2514.38
2022-08-16T09:08:52.516Z,2373.75
2022-08-16T09:09:51.484Z,2441.25
2022-08-16T09:11:01.332Z,2441.25
2022-08-16T09:12:02.855Z,2491.88
2022-08-16T09:12:52.722Z,2480.62
2022-08-16T09:13:51.556Z,2497.50
2022-08-16T09:14:51.505Z,2531.25
2022-08-16T09:15:51.465Z,2643.75
2022-08-16T09:17:01.109Z,2604.38
2022-08-16T09:17:54.793Z,2615.62
2022-08-16T09:18:57.617Z,2626.88
2022-08-16T09:19:55.661Z,2587.50
2022-08-16T09:20:59.155Z,2587.50
2022-08-16T09:21:56.091Z,2722.50
2022-08-16T09:22:52.665Z,2660.62
2022-08-16T09:23:51.678Z,2660.62
2022-08-16T09:24:53.328Z,2649.38
2022-08-16T09:25:51.294Z,2666.25
2022-08-16T09:26:52.534Z,2626.88
2022-08-16T09:27:58.016Z,2649.38
2022-08-16T09:29:15.222Z,2660.62
2022-08-16T09:30:00.139Z,2660.62
2022-08-16T09:30:52.233Z,2660.62
2022-08-16T09:31:53.524Z,2722.50
2022-08-16T09:32:51.241Z,2756.25
2022-08-16T09:33:52.150Z,2750.62
2022-08-16T09:34:51.159Z,2739.38
2022-08-16T09:35:53.133Z,2784.38
2022-08-16T09:36:53.981Z,2885.62
2022-08-16T09:38:00.803Z,2722.50
2022-08-16T09:38:52.168Z,2677.50
2022-08-16T09:39:52.166Z,2812.50
2022-08-16T09:40:51.122Z,2851.88
2022-08-16T09:41:53.866Z,2784.38
2022-08-16T09:42:58.665Z,2846.25
2022-08-16T09:44:00.102Z,2902.50
2022-08-16T09:45:12.821Z,2818.12
2022-08-16T09:45:54.464Z,2840.62
2022-08-16T09:46:54.802Z,2790.00
2022-08-16T09:47:56.632Z,2840.62
2022-08-16T09:48:52.002Z,2919.38
2022-08-16T09:49:51.333Z,2936.25
2022-08-16T09:50:50.984Z,2908.12
2022-08-16T09:51:52.004Z,2998.12
2022-08-16T09:52:51.123Z,2981.25
2022-08-16T09:53:53.660Z,2941.88
2022-08-16T09:54:50.954Z,3071.25
2022-08-16T09:55:50.918Z,2958.75
2022-08-16T09:56:52.673Z,2941.88
2022-08-16T09:57:52.992Z,2986.88
2022-08-16T09:59:04.167Z,3015.00
2022-08-16T09:59:56.242Z,2992.50
2022-08-16T10:00:50.861Z,2975.62
2022-08-16T10:01:50.817Z,2902.50
2022-08-16T10:02:50.877Z,3099.38
2022-08-16T10:04:01.564Z,3155.62
2022-08-16T10:04:54.581Z,3150.00
2022-08-16T10:05:50.805Z,3076.88
2022-08-16T10:06:50.770Z,3195.00
2022-08-16T10:07:51.013Z,3206.25
2022-08-16T10:09:04.669Z,2728.12
2022-08-16T10:09:53.993Z,2289.38
2022-08-16T10:10:50.820Z,2874.38
2022-08-16T10:11:51.119Z,3318.75
2022-08-16T10:12:55.547Z,3358.12
2022-08-16T10:13:51.682Z,3526.88
2022-08-16T10:14:50.707Z,3470.62
2022-08-16T10:15:54.984Z,3330.00
2022-08-16T10:16:59.955Z,3391.88
2022-08-16T10:18:00.024Z,3391.88
2022-08-16T10:19:00.706Z,3391.88
2022-08-16T10:19:51.656Z,3363.75
2022-08-16T10:20:50.621Z,3307.50
2022-08-16T10:21:56.255Z,3251.25
2022-08-16T10:22:58.813Z,3307.50
2022-08-16T10:23:51.558Z,3195.00
2022-08-16T10:24:55.683Z,3144.38
2022-08-16T10:27:17.214Z,3189.38
2022-08-16T10:27:17.315Z,3189.38
2022-08-16T10:27:56.829Z,3262.50
2022-08-16T10:28:51.518Z,3431.25
2022-08-16T10:30:00.839Z,2351.25
2022-08-16T10:30:58.670Z,2902.50
2022-08-16T10:31:53.586Z,2902.50
2022-08-16T10:32:50.476Z,2593.12
2022-08-16T10:33:50.459Z,1006.88
2022-08-16T10:34:52.231Z,950.62
2022-08-16T10:35:50.466Z,973.12
2022-08-16T10:36:54.403Z,1001.25
2022-08-16T10:37:52.402Z,1057.50
2022-08-16T10:38:52.139Z,1119.38
2022-08-16T10:39:50.449Z,1265.62
2022-08-16T10:40:51.487Z,1513.12
2022-08-16T10:41:50.377Z,1755.00
2022-08-16T10:42:50.537Z,2396.25
2022-08-16T10:43:50.437Z,3273.75
2022-08-16T10:44:54.726Z,3853.12
2022-08-16T10:45:59.762Z,3515.62
2022-08-16T10:46:51.346Z,3588.75
2022-08-16T10:48:00.683Z,2975.62
2022-08-16T10:48:51.278Z,2677.50
2022-08-16T10:49:50.292Z,2913.75
2022-08-16T10:50:50.320Z,3015.00
2022-08-16T10:52:01.342Z,3808.12
2022-08-16T10:52:52.695Z,3217.50
2022-08-16T10:53:52.252Z,3549.38
2022-08-16T10:55:57.850Z,3616.88
2022-08-16T10:56:55.845Z,3628.12
2022-08-16T10:57:51.174Z,3819.38
2022-08-16T10:58:50.184Z,3723.75
2022-08-16T10:59:56.139Z,3538.12
2022-08-16T11:00:54.276Z,3481.88
2022-08-16T11:02:58.614Z,3414.38
2022-08-16T11:03:54.598Z,3352.50
2022-08-16T11:05:08.908Z,3307.50
2022-08-16T11:06:07.308Z,3268.12
2022-08-16T11:07:08.229Z,3476.25
2022-08-16T11:07:52.091Z,3465.00
2022-08-16T11:09:20.903Z,3498.75
2022-08-16T11:09:51.086Z,3583.12
2022-08-16T11:11:14.174Z,3549.38
2022-08-16T11:12:52.857Z,3757.50
2022-08-16T11:13:59.069Z,3633.75
2022-08-16T11:15:55.549Z,3673.12
2022-08-16T11:17:10.490Z,3763.12
2022-08-16T11:19:02.990Z,3757.50
2022-08-16T11:19:04.167Z,3751.88
2022-08-16T11:20:50.945Z,3678.75
2022-08-16T11:22:50.901Z,3549.38
2022-08-16T11:23:51.436Z,3746.25
2022-08-16T11:25:11.869Z,3768.75
2022-08-16T11:26:07.926Z,3746.25
2022-08-16T11:27:18.694Z,3718.12
2022-08-16T11:27:50.814Z,3706.88
2022-08-16T11:29:52.178Z,3796.88
2022-08-16T11:30:54.858Z,3611.25
2022-08-16T11:31:53.903Z,3605.62
2022-08-16T11:32:50.645Z,3555.00
2022-08-16T11:33:53.279Z,3543.75
2022-08-16T11:35:13.662Z,3650.62
2022-08-16T11:36:59.301Z,3560.62
2022-08-16T11:38:46.461Z,3583.12
2022-08-16T11:38:55.643Z,3774.38
2022-08-16T11:39:59.665Z,3757.50
2022-08-16T11:40:52.702Z,3701.25
2022-08-16T11:41:51.605Z,3577.50
2022-08-16T11:42:49.642Z,3521.25
2022-08-16T11:43:49.630Z,3881.25
2022-08-16T11:44:52.620Z,3796.88
2022-08-16T11:45:53.559Z,3571.88
2022-08-16T11:46:49.610Z,3650.62
2022-08-16T11:47:49.759Z,3701.25
2022-08-16T11:48:49.573Z,3847.50
2022-08-16T11:49:49.561Z,3825.00
2022-08-16T11:50:49.604Z,3701.25
2022-08-16T11:51:49.555Z,3605.62
2022-08-16T11:52:49.565Z,1265.62
2022-08-16T11:53:49.551Z,1175.62
2022-08-16T11:54:56.971Z,1260.00
2022-08-16T11:55:54.565Z,1338.75
2022-08-16T11:56:56.580Z,1575.00
2022-08-16T11:57:50.535Z,1428.75
2022-08-16T11:58:51.478Z,1321.88
2022-08-16T11:59:50.474Z,1462.50
2022-08-16T12:00:51.840Z,1288.12
2022-08-16T12:01:54.914Z,1153.12
2022-08-16T12:02:50.397Z,1248.75
2022-08-16T12:03:49.500Z,1389.38
2022-08-16T12:04:51.647Z,1451.25
2022-08-16T12:05:52.011Z,1501.88
2022-08-16T12:06:50.341Z,1507.50
2022-08-16T12:07:49.606Z,1524.38
2022-08-16T12:08:49.320Z,1546.88
2022-08-16T12:09:49.345Z,1608.75
2022-08-16T12:10:49.324Z,1878.75
2022-08-16T12:11:52.413Z,1985.62
2022-08-16T12:12:49.303Z,4331.25
2022-08-16T12:13:49.261Z,4308.75
2022-08-16T12:14:51.270Z,4050.00
2022-08-16T12:15:50.274Z,3060.00
2022-08-16T12:16:55.209Z,1788.75
2022-08-16T12:17:50.361Z,1732.50
2022-08-16T12:19:49.207Z,4156.88
2022-08-16T12:20:49.194Z,1957.50
2022-08-16T12:21:58.475Z,1996.88
2022-08-16T12:22:50.201Z,3583.12
2022-08-16T12:23:49.128Z,1912.50
2022-08-16T12:24:51.945Z,1732.50
2022-08-16T12:25:49.152Z,1698.75
2022-08-16T12:26:49.106Z,1743.75
2022-08-16T12:27:49.809Z,1850.62
2022-08-16T12:28:53.918Z,1535.62
2022-08-16T12:29:50.089Z,1395.00
2022-08-16T12:30:49.079Z,1321.88
2022-08-16T12:32:00.426Z,1260.00
2022-08-16T12:32:57.669Z,1215.00
2022-08-16T12:33:50.794Z,1164.38
2022-08-16T12:34:52.867Z,1113.75
2022-08-16T12:35:49.114Z,1085.62
2022-08-16T12:36:48.966Z,1096.88
2022-08-16T12:37:49.147Z,1119.38
2022-08-16T12:38:49.923Z,1125.00
2022-08-16T12:39:50.768Z,1119.38
2022-08-16T12:40:48.914Z,1091.25
2022-08-16T12:41:49.476Z,1080.00
2022-08-16T12:42:53.053Z,1080.00
2022-08-16T12:43:48.957Z,1091.25
2022-08-16T12:44:48.863Z,1113.75
2022-08-16T12:45:48.887Z,1125.00
2022-08-16T12:46:49.056Z,1147.50
2022-08-16T12:47:48.833Z,1164.38
2022-08-16T12:48:48.830Z,1186.88
2022-08-16T12:49:48.807Z,1209.38
2022-08-16T12:50:49.228Z,1237.50
2022-08-16T12:51:58.823Z,1260.00
2022-08-16T12:52:52.440Z,1288.12
2022-08-16T12:53:48.857Z,1305.00
2022-08-16T12:54:55.031Z,1310.62
2022-08-16T12:55:49.902Z,1316.25
2022-08-16T12:56:50.633Z,1305.00
2022-08-16T12:57:58.509Z,1288.12
2022-08-16T12:58:51.586Z,1299.38
2022-08-16T12:59:48.692Z,1316.25
2022-08-16T13:00:49.950Z,1350.00
2022-08-16T13:01:50.671Z,1378.12
2022-08-16T13:02:50.285Z,1423.12
2022-08-16T13:03:48.774Z,1400.62
2022-08-16T13:04:48.624Z,1355.62